sensor_id;sensor_type;location;lat;lon;timestamp;temperature;humidity
48208;DHT22;33997;53.278;9.708;2023-04-28T00:02:13;3.20;93.00
48208;DHT22;33997;53.278;9.708;2023-04-28T00:04:38;3.20;93.00
48208;DHT22;33997;53.278;9.708;2023-04-28T00:07:04;3.20;93.10
48208;DHT22;33997;53.278;9.708;2023-04-28T00:09:30;3.20;92.90
48208;DHT22;33997;53.278;9.708;2023-04-28T00:11:55;3.10;92.80
48208;DHT22;33997;53.278;9.708;2023-04-28T00:14:21;3.10;92.90
48208;DHT22;33997;53.278;9.708;2023-04-28T00:16:46;3.00;92.90
48208;DHT22;33997;53.278;9.708;2023-04-28T00:19:12;3.00;92.90
48208;DHT22;33997;53.278;9.708;2023-04-28T00:21:37;2.90;92.90
48208;DHT22;33997;53.278;9.708;2023-04-28T00:24:03;2.90;92.90
48208;DHT22;33997;53.278;9.708;2023-04-28T00:26:28;2.80;93.10
48208;DHT22;33997;53.278;9.708;2023-04-28T00:28:54;2.80;93.30
48208;DHT22;33997;53.278;9.708;2023-04-28T00:31:19;2.80;93.40
48208;DHT22;33997;53.278;9.708;2023-04-28T00:33:45;2.80;93.40
48208;DHT22;33997;53.278;9.708;2023-04-28T00:36:10;2.90;93.60
48208;DHT22;33997;53.278;9.708;2023-04-28T00:38:36;2.90;93.70
48208;DHT22;33997;53.278;9.708;2023-04-28T00:41:02;2.90;93.60
48208;DHT22;33997;53.278;9.708;2023-04-28T00:43:28;3.00;93.50
48208;DHT22;33997;53.278;9.708;2023-04-28T00:45:53;3.00;93.40
48208;DHT22;33997;53.278;9.708;2023-04-28T00:48:19;3.00;93.40
48208;DHT22;33997;53.278;9.708;2023-04-28T00:50:45;3.00;93.30
48208;DHT22;33997;53.278;9.708;2023-04-28T00:53:12;3.00;93.40
48208;DHT22;33997;53.278;9.708;2023-04-28T00:55:38;3.00;93.50
48208;DHT22;33997;53.278;9.708;2023-04-28T00:58:07;3.00;93.40
48208;DHT22;33997;53.278;9.708;2023-04-28T01:00:33;3.00;93.40
48208;DHT22;33997;53.278;9.708;2023-04-28T01:02:59;2.90;93.40
48208;DHT22;33997;53.278;9.708;2023-04-28T01:05:25;3.00;93.40
48208;DHT22;33997;53.278;9.708;2023-04-28T01:07:51;3.00;93.20
48208;DHT22;33997;53.278;9.708;2023-04-28T01:10:16;3.00;93.30
48208;DHT22;33997;53.278;9.708;2023-04-28T01:12:42;3.10;93.20
48208;DHT22;33997;53.278;9.708;2023-04-28T01:15:16;3.10;93.00
48208;DHT22;33997;53.278;9.708;2023-04-28T01:17:42;3.10;92.80
48208;DHT22;33997;53.278;9.708;2023-04-28T01:20:08;3.20;92.60
48208;DHT22;33997;53.278;9.708;2023-04-28T01:22:34;3.10;92.50
48208;DHT22;33997;53.278;9.708;2023-04-28T01:25:00;3.10;92.60
48208;DHT22;33997;53.278;9.708;2023-04-28T01:27:27;3.10;92.60
48208;DHT22;33997;53.278;9.708;2023-04-28T01:29:53;3.10;92.40
48208;DHT22;33997;53.278;9.708;2023-04-28T01:32:18;3.20;92.50
48208;DHT22;33997;53.278;9.708;2023-04-28T01:34:44;3.20;92.40
48208;DHT22;33997;53.278;9.708;2023-04-28T01:37:09;3.20;92.20
48208;DHT22;33997;53.278;9.708;2023-04-28T01:39:35;3.10;92.20
48208;DHT22;33997;53.278;9.708;2023-04-28T01:42:00;3.10;92.20
48208;DHT22;33997;53.278;9.708;2023-04-28T01:44:26;3.20;92.50
48208;DHT22;33997;53.278;9.708;2023-04-28T01:46:52;3.10;92.40
48208;DHT22;33997;53.278;9.708;2023-04-28T01:49:17;3.10;92.30
48208;DHT22;33997;53.278;9.708;2023-04-28T01:51:43;3.20;92.30
48208;DHT22;33997;53.278;9.708;2023-04-28T01:54:08;3.20;92.30
48208;DHT22;33997;53.278;9.708;2023-04-28T01:56:34;3.20;92.10
48208;DHT22;33997;53.278;9.708;2023-04-28T01:58:59;3.10;92.20
48208;DHT22;33997;53.278;9.708;2023-04-28T02:01:25;3.10;92.00
48208;DHT22;33997;53.278;9.708;2023-04-28T02:03:50;3.10;92.00
48208;DHT22;33997;53.278;9.708;2023-04-28T02:06:16;3.00;92.10
48208;DHT22;33997;53.278;9.708;2023-04-28T02:08:41;3.00;92.20
48208;DHT22;33997;53.278;9.708;2023-04-28T02:11:07;3.00;92.20
48208;DHT22;33997;53.278;9.708;2023-04-28T02:13:32;3.00;92.30
48208;DHT22;33997;53.278;9.708;2023-04-28T02:16:01;2.90;92.40
48208;DHT22;33997;53.278;9.708;2023-04-28T02:18:26;2.80;92.40
48208;DHT22;33997;53.278;9.708;2023-04-28T02:20:52;2.80;92.50
48208;DHT22;33997;53.278;9.708;2023-04-28T02:23:17;2.80;92.60
48208;DHT22;33997;53.278;9.708;2023-04-28T02:25:43;2.80;92.60
48208;DHT22;33997;53.278;9.708;2023-04-28T02:28:08;2.70;92.50
48208;DHT22;33997;53.278;9.708;2023-04-28T02:30:34;2.60;92.60
48208;DHT22;33997;53.278;9.708;2023-04-28T02:32:59;2.60;92.80
48208;DHT22;33997;53.278;9.708;2023-04-28T02:35:25;2.50;92.90
48208;DHT22;33997;53.278;9.708;2023-04-28T02:37:51;2.60;93.10
48208;DHT22;33997;53.278;9.708;2023-04-28T02:40:16;2.50;93.30
48208;DHT22;33997;53.278;9.708;2023-04-28T02:42:42;2.50;93.40
48208;DHT22;33997;53.278;9.708;2023-04-28T02:45:08;2.50;93.40
48208;DHT22;33997;53.278;9.708;2023-04-28T02:47:33;2.50;93.40
48208;DHT22;33997;53.278;9.708;2023-04-28T02:49:59;2.50;93.50
48208;DHT22;33997;53.278;9.708;2023-04-28T02:52:24;2.50;93.60
48208;DHT22;33997;53.278;9.708;2023-04-28T02:54:50;2.50;93.70
48208;DHT22;33997;53.278;9.708;2023-04-28T02:57:18;2.40;93.60
48208;DHT22;33997;53.278;9.708;2023-04-28T02:59:44;2.50;93.80
48208;DHT22;33997;53.278;9.708;2023-04-28T03:02:10;2.50;93.80
48208;DHT22;33997;53.278;9.708;2023-04-28T03:04:36;2.40;93.70
48208;DHT22;33997;53.278;9.708;2023-04-28T03:07:02;2.50;93.70
48208;DHT22;33997;53.278;9.708;2023-04-28T03:09:27;2.50;93.70
48208;DHT22;33997;53.278;9.708;2023-04-28T03:11:53;2.50;93.60
48208;DHT22;33997;53.278;9.708;2023-04-28T03:14:18;2.50;93.60
48208;DHT22;33997;53.278;9.708;2023-04-28T03:16:44;2.50;93.50
48208;DHT22;33997;53.278;9.708;2023-04-28T03:19:09;2.50;93.50
48208;DHT22;33997;53.278;9.708;2023-04-28T03:21:35;2.50;93.50
48208;DHT22;33997;53.278;9.708;2023-04-28T03:24:00;2.50;93.40
48208;DHT22;33997;53.278;9.708;2023-04-28T03:26:26;2.60;93.40
48208;DHT22;33997;53.278;9.708;2023-04-28T03:28:51;2.60;93.40
48208;DHT22;33997;53.278;9.708;2023-04-28T03:31:17;2.60;93.30
48208;DHT22;33997;53.278;9.708;2023-04-28T03:33:42;2.60;93.30
48208;DHT22;33997;53.278;9.708;2023-04-28T03:36:09;2.60;93.20
48208;DHT22;33997;53.278;9.708;2023-04-28T03:38:35;2.60;93.20
48208;DHT22;33997;53.278;9.708;2023-04-28T03:41:00;2.60;93.20
48208;DHT22;33997;53.278;9.708;2023-04-28T03:43:26;2.60;93.10
48208;DHT22;33997;53.278;9.708;2023-04-28T03:45:52;2.50;92.90
48208;DHT22;33997;53.278;9.708;2023-04-28T03:48:17;2.50;92.80
48208;DHT22;33997;53.278;9.708;2023-04-28T03:50:43;2.50;92.80
48208;DHT22;33997;53.278;9.708;2023-04-28T03:53:10;2.40;92.90
48208;DHT22;33997;53.278;9.708;2023-04-28T03:55:35;2.40;92.80
48208;DHT22;33997;53.278;9.708;2023-04-28T03:58:01;2.40;92.90
48208;DHT22;33997;53.278;9.708;2023-04-28T04:00:26;2.30;92.90
48208;DHT22;33997;53.278;9.708;2023-04-28T04:02:52;2.30;93.00
48208;DHT22;33997;53.278;9.708;2023-04-28T04:05:17;2.20;92.90
48208;DHT22;33997;53.278;9.708;2023-04-28T04:07:42;2.30;92.80
48208;DHT22;33997;53.278;9.708;2023-04-28T04:10:08;2.30;93.00
48208;DHT22;33997;53.278;9.708;2023-04-28T04:12:34;2.20;92.80
48208;DHT22;33997;53.278;9.708;2023-04-28T04:14:59;2.30;92.90
48208;DHT22;33997;53.278;9.708;2023-04-28T04:17:25;2.40;92.70
48208;DHT22;33997;53.278;9.708;2023-04-28T04:19:51;2.40;92.40
48208;DHT22;33997;53.278;9.708;2023-04-28T04:22:16;2.50;92.20
48208;DHT22;33997;53.278;9.708;2023-04-28T04:24:42;2.60;91.80
48208;DHT22;33997;53.278;9.708;2023-04-28T04:27:07;2.60;91.80
48208;DHT22;33997;53.278;9.708;2023-04-28T04:29:33;2.70;91.60
48208;DHT22;33997;53.278;9.708;2023-04-28T04:31:58;2.80;91.40
48208;DHT22;33997;53.278;9.708;2023-04-28T04:34:24;2.80;91.20
48208;DHT22;33997;53.278;9.708;2023-04-28T04:36:49;2.90;90.90
48208;DHT22;33997;53.278;9.708;2023-04-28T04:39:15;2.90;90.90
48208;DHT22;33997;53.278;9.708;2023-04-28T04:41:40;3.00;90.70
48208;DHT22;33997;53.278;9.708;2023-04-28T04:44:06;3.00;90.50
48208;DHT22;33997;53.278;9.708;2023-04-28T04:46:32;3.20;89.90
48208;DHT22;33997;53.278;9.708;2023-04-28T04:48:57;3.30;89.30
48208;DHT22;33997;53.278;9.708;2023-04-28T04:51:23;3.40;89.00
48208;DHT22;33997;53.278;9.708;2023-04-28T04:53:48;3.50;88.40
48208;DHT22;33997;53.278;9.708;2023-04-28T04:56:14;3.60;88.10
48208;DHT22;33997;53.278;9.708;2023-04-28T04:58:42;3.60;87.80
48208;DHT22;33997;53.278;9.708;2023-04-28T05:01:08;3.80;87.40
48208;DHT22;33997;53.278;9.708;2023-04-28T05:03:34;3.90;87.00
48208;DHT22;33997;53.278;9.708;2023-04-28T05:06:00;4.00;86.30
48208;DHT22;33997;53.278;9.708;2023-04-28T05:08:27;4.10;86.50
48208;DHT22;33997;53.278;9.708;2023-04-28T05:10:52;4.20;85.80
48208;DHT22;33997;53.278;9.708;2023-04-28T05:13:18;4.40;85.10
48208;DHT22;33997;53.278;9.708;2023-04-28T05:15:43;4.50;84.80
48208;DHT22;33997;53.278;9.708;2023-04-28T05:18:09;4.60;83.90
48208;DHT22;33997;53.278;9.708;2023-04-28T05:20:36;4.80;84.10
48208;DHT22;33997;53.278;9.708;2023-04-28T05:23:02;4.90;83.00
48208;DHT22;33997;53.278;9.708;2023-04-28T05:25:27;5.00;82.90
48208;DHT22;33997;53.278;9.708;2023-04-28T05:27:55;5.10;82.60
48208;DHT22;33997;53.278;9.708;2023-04-28T05:30:21;5.20;82.20
48208;DHT22;33997;53.278;9.708;2023-04-28T05:32:46;5.40;81.60
48208;DHT22;33997;53.278;9.708;2023-04-28T05:35:12;5.50;81.30
48208;DHT22;33997;53.278;9.708;2023-04-28T05:37:38;5.60;80.30
48208;DHT22;33997;53.278;9.708;2023-04-28T05:40:04;5.70;79.00
48208;DHT22;33997;53.278;9.708;2023-04-28T05:42:30;5.90;79.30
48208;DHT22;33997;53.278;9.708;2023-04-28T05:44:56;6.00;78.10
48208;DHT22;33997;53.278;9.708;2023-04-28T05:47:21;6.10;77.60
48208;DHT22;33997;53.278;9.708;2023-04-28T05:49:47;6.30;76.60
48208;DHT22;33997;53.278;9.708;2023-04-28T05:52:12;6.50;77.60
48208;DHT22;33997;53.278;9.708;2023-04-28T05:54:38;6.50;74.40
48208;DHT22;33997;53.278;9.708;2023-04-28T05:57:03;6.50;74.00
48208;DHT22;33997;53.278;9.708;2023-04-28T05:59:29;6.70;75.00
48208;DHT22;33997;53.278;9.708;2023-04-28T06:01:55;6.90;75.10
48208;DHT22;33997;53.278;9.708;2023-04-28T06:04:21;6.90;72.80
48208;DHT22;33997;53.278;9.708;2023-04-28T06:06:46;7.10;74.00
48208;DHT22;33997;53.278;9.708;2023-04-28T06:09:12;7.20;73.20
48208;DHT22;33997;53.278;9.708;2023-04-28T06:11:37;7.20;71.70
48208;DHT22;33997;53.278;9.708;2023-04-28T06:14:03;7.20;70.70
48208;DHT22;33997;53.278;9.708;2023-04-28T06:16:28;7.30;71.60
48208;DHT22;33997;53.278;9.708;2023-04-28T06:18:54;7.40;70.00
48208;DHT22;33997;53.278;9.708;2023-04-28T06:21:19;7.50;69.60
48208;DHT22;33997;53.278;9.708;2023-04-28T06:23:45;7.60;69.30
48208;DHT22;33997;53.278;9.708;2023-04-28T06:26:11;7.80;69.20
48208;DHT22;33997;53.278;9.708;2023-04-28T06:28:36;8.10;71.20
48208;DHT22;33997;53.278;9.708;2023-04-28T06:31:02;8.30;69.70
48208;DHT22;33997;53.278;9.708;2023-04-28T06:33:27;8.50;67.00
48208;DHT22;33997;53.278;9.708;2023-04-28T06:35:53;8.50;66.60
48208;DHT22;33997;53.278;9.708;2023-04-28T06:38:19;8.70;65.70
48208;DHT22;33997;53.278;9.708;2023-04-28T06:40:44;8.80;64.90
48208;DHT22;33997;53.278;9.708;2023-04-28T06:43:10;8.80;62.70
48208;DHT22;33997;53.278;9.708;2023-04-28T06:45:36;9.00;63.30
48208;DHT22;33997;53.278;9.708;2023-04-28T06:48:02;9.30;64.00
48208;DHT22;33997;53.278;9.708;2023-04-28T06:50:27;9.70;64.70
48208;DHT22;33997;53.278;9.708;2023-04-28T06:52:53;10.00;63.50
48208;DHT22;33997;53.278;9.708;2023-04-28T06:55:18;10.00;62.00
48208;DHT22;33997;53.278;9.708;2023-04-28T06:57:44;9.80;61.10
48208;DHT22;33997;53.278;9.708;2023-04-28T07:00:10;9.60;61.00
48208;DHT22;33997;53.278;9.708;2023-04-28T07:02:37;9.70;62.30
48208;DHT22;33997;53.278;9.708;2023-04-28T07:05:03;9.70;61.30
48208;DHT22;33997;53.278;9.708;2023-04-28T07:07:29;9.60;60.90
48208;DHT22;33997;53.278;9.708;2023-04-28T07:09:55;9.60;61.60
48208;DHT22;33997;53.278;9.708;2023-04-28T07:12:21;9.60;61.10
48208;DHT22;33997;53.278;9.708;2023-04-28T07:14:47;9.70;62.30
48208;DHT22;33997;53.278;9.708;2023-04-28T07:17:12;9.90;61.00
48208;DHT22;33997;53.278;9.708;2023-04-28T07:19:38;10.00;60.70
48208;DHT22;33997;53.278;9.708;2023-04-28T07:22:03;10.10;59.80
48208;DHT22;33997;53.278;9.708;2023-04-28T07:24:29;10.20;59.60
48208;DHT22;33997;53.278;9.708;2023-04-28T07:26:55;10.40;58.80
48208;DHT22;33997;53.278;9.708;2023-04-28T07:29:21;10.50;59.00
48208;DHT22;33997;53.278;9.708;2023-04-28T07:31:47;10.50;57.80
48208;DHT22;33997;53.278;9.708;2023-04-28T07:34:12;10.80;57.70
48208;DHT22;33997;53.278;9.708;2023-04-28T07:36:38;10.80;57.50
48208;DHT22;33997;53.278;9.708;2023-04-28T07:39:03;10.80;57.40
48208;DHT22;33997;53.278;9.708;2023-04-28T07:41:29;11.00;57.80
48208;DHT22;33997;53.278;9.708;2023-04-28T07:43:54;11.20;57.50
48208;DHT22;33997;53.278;9.708;2023-04-28T07:46:20;11.60;58.10
48208;DHT22;33997;53.278;9.708;2023-04-28T07:48:45;11.70;56.40
48208;DHT22;33997;53.278;9.708;2023-04-28T07:51:11;11.90;55.70
48208;DHT22;33997;53.278;9.708;2023-04-28T07:53:36;11.50;55.70
48208;DHT22;33997;53.278;9.708;2023-04-28T07:56:02;11.50;55.00
48208;DHT22;33997;53.278;9.708;2023-04-28T07:58:28;11.50;55.10
48208;DHT22;33997;53.278;9.708;2023-04-28T08:00:53;11.50;54.80
48208;DHT22;33997;53.278;9.708;2023-04-28T08:03:18;11.70;54.40
48208;DHT22;33997;53.278;9.708;2023-04-28T08:05:44;11.70;53.40
48208;DHT22;33997;53.278;9.708;2023-04-28T08:08:10;11.90;55.30
48208;DHT22;33997;53.278;9.708;2023-04-28T08:10:36;12.40;55.10
48208;DHT22;33997;53.278;9.708;2023-04-28T08:13:04;12.20;52.20
48208;DHT22;33997;53.278;9.708;2023-04-28T08:15:30;12.70;54.00
48208;DHT22;33997;53.278;9.708;2023-04-28T08:17:55;13.30;54.40
48208;DHT22;33997;53.278;9.708;2023-04-28T08:20:21;13.30;53.80
48208;DHT22;33997;53.278;9.708;2023-04-28T08:22:46;12.90;51.40
48208;DHT22;33997;53.278;9.708;2023-04-28T08:25:12;12.70;51.70
48208;DHT22;33997;53.278;9.708;2023-04-28T08:27:37;13.00;50.50
48208;DHT22;33997;53.278;9.708;2023-04-28T08:30:09;13.00;50.70
48208;DHT22;33997;53.278;9.708;2023-04-28T08:32:34;13.50;50.20
48208;DHT22;33997;53.278;9.708;2023-04-28T08:35:03;13.90;50.20
48208;DHT22;33997;53.278;9.708;2023-04-28T08:37:29;14.30;49.00
48208;DHT22;33997;53.278;9.708;2023-04-28T08:39:55;14.30;49.10
48208;DHT22;33997;53.278;9.708;2023-04-28T08:42:32;14.20;47.60
48208;DHT22;33997;53.278;9.708;2023-04-28T08:44:58;14.40;46.60
48208;DHT22;33997;53.278;9.708;2023-04-28T08:47:35;14.50;48.60
48208;DHT22;33997;53.278;9.708;2023-04-28T08:50:03;14.60;47.70
48208;DHT22;33997;53.278;9.708;2023-04-28T08:52:29;14.50;47.00
48208;DHT22;33997;53.278;9.708;2023-04-28T08:54:58;14.50;47.60
48208;DHT22;33997;53.278;9.708;2023-04-28T08:57:29;14.30;48.50
48208;DHT22;33997;53.278;9.708;2023-04-28T08:59:57;14.10;48.00
48208;DHT22;33997;53.278;9.708;2023-04-28T09:02:23;13.80;48.80
48208;DHT22;33997;53.278;9.708;2023-04-28T09:04:48;13.90;49.40
48208;DHT22;33997;53.278;9.708;2023-04-28T09:07:14;13.60;49.00
48208;DHT22;33997;53.278;9.708;2023-04-28T09:09:41;13.80;48.70
48208;DHT22;33997;53.278;9.708;2023-04-28T09:12:06;14.00;48.50
48208;DHT22;33997;53.278;9.708;2023-04-28T09:14:34;13.70;48.90
48208;DHT22;33997;53.278;9.708;2023-04-28T09:17:01;14.10;50.20
48208;DHT22;33997;53.278;9.708;2023-04-28T09:19:34;14.40;49.10
48208;DHT22;33997;53.278;9.708;2023-04-28T09:22:01;14.40;48.40
48208;DHT22;33997;53.278;9.708;2023-04-28T09:24:36;14.30;48.60
48208;DHT22;33997;53.278;9.708;2023-04-28T09:27:05;14.30;48.10
48208;DHT22;33997;53.278;9.708;2023-04-28T09:29:36;14.30;48.00
48208;DHT22;33997;53.278;9.708;2023-04-28T09:32:29;14.50;47.20
48208;DHT22;33997;53.278;9.708;2023-04-28T09:34:55;14.40;47.90
48208;DHT22;33997;53.278;9.708;2023-04-28T09:37:26;14.40;48.40
48208;DHT22;33997;53.278;9.708;2023-04-28T09:39:54;14.30;48.10
48208;DHT22;33997;53.278;9.708;2023-04-28T09:42:37;14.40;48.10
48208;DHT22;33997;53.278;9.708;2023-04-28T09:45:05;14.70;47.80
48208;DHT22;33997;53.278;9.708;2023-04-28T09:47:33;14.80;48.40
48208;DHT22;33997;53.278;9.708;2023-04-28T09:50:01;15.20;48.50
48208;DHT22;33997;53.278;9.708;2023-04-28T09:52:27;15.40;46.50
48208;DHT22;33997;53.278;9.708;2023-04-28T09:54:54;15.20;47.40
48208;DHT22;33997;53.278;9.708;2023-04-28T09:57:21;15.00;47.70
48208;DHT22;33997;53.278;9.708;2023-04-28T09:59:51;15.40;48.50
48208;DHT22;33997;53.278;9.708;2023-04-28T10:02:18;15.30;47.50
48208;DHT22;33997;53.278;9.708;2023-04-28T10:04:48;15.30;47.50
48208;DHT22;33997;53.278;9.708;2023-04-28T10:07:15;15.10;46.30
48208;DHT22;33997;53.278;9.708;2023-04-28T10:09:42;15.10;46.40
48208;DHT22;33997;53.278;9.708;2023-04-28T10:12:18;15.10;47.30
48208;DHT22;33997;53.278;9.708;2023-04-28T10:14:44;14.70;46.50
48208;DHT22;33997;53.278;9.708;2023-04-28T10:17:12;14.70;47.20
48208;DHT22;33997;53.278;9.708;2023-04-28T10:19:40;14.60;48.00
48208;DHT22;33997;53.278;9.708;2023-04-28T10:27:29;14.50;47.40
48208;DHT22;33997;53.278;9.708;2023-04-28T10:30:12;14.80;48.40
48208;DHT22;33997;53.278;9.708;2023-04-28T10:32:38;15.10;48.50
48208;DHT22;33997;53.278;9.708;2023-04-28T10:38:09;15.10;47.20
48208;DHT22;33997;53.278;9.708;2023-04-28T10:40:36;15.00;47.80
48208;DHT22;33997;53.278;9.708;2023-04-28T10:43:03;15.00;47.70
48208;DHT22;33997;53.278;9.708;2023-04-28T10:56:25;14.90;47.30
48208;DHT22;33997;53.278;9.708;2023-04-28T10:58:53;15.30;48.10
48208;DHT22;33997;53.278;9.708;2023-04-28T11:01:31;15.10;47.10
48208;DHT22;33997;53.278;9.708;2023-04-28T11:04:08;15.30;45.70
48208;DHT22;33997;53.278;9.708;2023-04-28T11:06:42;16.10;47.60
48208;DHT22;33997;53.278;9.708;2023-04-28T11:16:54;16.40;46.90
48208;DHT22;33997;53.278;9.708;2023-04-28T11:19:27;16.30;47.00
48208;DHT22;33997;53.278;9.708;2023-04-28T11:21:55;16.30;45.10
48208;DHT22;33997;53.278;9.708;2023-04-28T11:24:21;15.90;46.90
48208;DHT22;33997;53.278;9.708;2023-04-28T11:26:49;16.00;47.20
48208;DHT22;33997;53.278;9.708;2023-04-28T11:29:15;16.10;47.10
48208;DHT22;33997;53.278;9.708;2023-04-28T11:31:48;16.00;47.40
48208;DHT22;33997;53.278;9.708;2023-04-28T11:34:19;15.80;47.40
48208;DHT22;33997;53.278;9.708;2023-04-28T11:36:44;15.70;47.50
48208;DHT22;33997;53.278;9.708;2023-04-28T11:39:11;15.90;48.50
48208;DHT22;33997;53.278;9.708;2023-04-28T11:41:39;15.90;48.20
48208;DHT22;33997;53.278;9.708;2023-04-28T11:44:12;15.50;47.10
48208;DHT22;33997;53.278;9.708;2023-04-28T11:46:50;15.50;48.10
48208;DHT22;33997;53.278;9.708;2023-04-28T11:49:19;15.60;49.40
48208;DHT22;33997;53.278;9.708;2023-04-28T11:51:45;15.00;48.00
48208;DHT22;33997;53.278;9.708;2023-04-28T11:54:13;14.90;48.80
48208;DHT22;33997;53.278;9.708;2023-04-28T11:56:42;14.90;49.00
48208;DHT22;33997;53.278;9.708;2023-04-28T11:59:10;14.90;48.00
48208;DHT22;33997;53.278;9.708;2023-04-28T12:01:47;14.80;49.90
48208;DHT22;33997;53.278;9.708;2023-04-28T12:04:14;14.90;49.20
48208;DHT22;33997;53.278;9.708;2023-04-28T12:07:04;14.70;48.90
48208;DHT22;33997;53.278;9.708;2023-04-28T12:09:31;14.90;49.30
48208;DHT22;33997;53.278;9.708;2023-04-28T12:12:02;15.00;49.70
48208;DHT22;33997;53.278;9.708;2023-04-28T12:14:29;14.90;50.20
48208;DHT22;33997;53.278;9.708;2023-04-28T12:16:56;14.80;50.70
48208;DHT22;33997;53.278;9.708;2023-04-28T12:19:22;15.00;50.10
48208;DHT22;33997;53.278;9.708;2023-04-28T12:22:02;15.30;50.10
48208;DHT22;33997;53.278;9.708;2023-04-28T12:24:28;15.30;50.60
48208;DHT22;33997;53.278;9.708;2023-04-28T12:26:54;15.40;50.00
48208;DHT22;33997;53.278;9.708;2023-04-28T12:29:38;15.30;50.80
48208;DHT22;33997;53.278;9.708;2023-04-28T12:32:05;15.00;51.10
48208;DHT22;33997;53.278;9.708;2023-04-28T12:34:31;15.10;51.90
48208;DHT22;33997;53.278;9.708;2023-04-28T12:37:01;15.00;52.40
48208;DHT22;33997;53.278;9.708;2023-04-28T12:39:27;15.00;51.50
48208;DHT22;33997;53.278;9.708;2023-04-28T12:41:52;15.10;52.70
48208;DHT22;33997;53.278;9.708;2023-04-28T12:44:23;15.00;51.40
48208;DHT22;33997;53.278;9.708;2023-04-28T12:46:50;15.00;51.30
48208;DHT22;33997;53.278;9.708;2023-04-28T12:49:16;15.10;51.30
48208;DHT22;33997;53.278;9.708;2023-04-28T12:51:41;15.10;50.10
48208;DHT22;33997;53.278;9.708;2023-04-28T12:54:07;15.10;49.90
48208;DHT22;33997;53.278;9.708;2023-04-28T12:56:33;15.20;50.90
48208;DHT22;33997;53.278;9.708;2023-04-28T12:58:59;15.20;50.30
48208;DHT22;33997;53.278;9.708;2023-04-28T13:01:26;15.30;51.10
48208;DHT22;33997;53.278;9.708;2023-04-28T13:03:52;15.10;50.20
48208;DHT22;33997;53.278;9.708;2023-04-28T13:06:18;15.00;50.20
48208;DHT22;33997;53.278;9.708;2023-04-28T13:08:44;15.00;51.30
48208;DHT22;33997;53.278;9.708;2023-04-28T13:11:10;15.00;51.30
48208;DHT22;33997;53.278;9.708;2023-04-28T13:13:36;15.10;52.10
48208;DHT22;33997;53.278;9.708;2023-04-28T13:16:01;14.90;51.80
48208;DHT22;33997;53.278;9.708;2023-04-28T13:18:28;14.90;51.20
48208;DHT22;33997;53.278;9.708;2023-04-28T13:20:54;15.00;51.70
48208;DHT22;33997;53.278;9.708;2023-04-28T13:23:20;15.10;52.50
48208;DHT22;33997;53.278;9.708;2023-04-28T13:25:45;15.10;52.70
48208;DHT22;33997;53.278;9.708;2023-04-28T13:28:11;15.10;52.40
48208;DHT22;33997;53.278;9.708;2023-04-28T13:30:37;15.50;53.50
48208;DHT22;33997;53.278;9.708;2023-04-28T13:33:03;15.80;51.10
48208;DHT22;33997;53.278;9.708;2023-04-28T13:35:28;16.00;49.70
48208;DHT22;33997;53.278;9.708;2023-04-28T13:37:54;16.10;48.90
48208;DHT22;33997;53.278;9.708;2023-04-28T13:40:29;16.00;48.60
48208;DHT22;33997;53.278;9.708;2023-04-28T13:42:55;15.70;49.00
48208;DHT22;33997;53.278;9.708;2023-04-28T13:45:21;15.70;50.00
48208;DHT22;33997;53.278;9.708;2023-04-28T13:47:46;15.70;49.60
48208;DHT22;33997;53.278;9.708;2023-04-28T13:50:13;15.60;49.90
48208;DHT22;33997;53.278;9.708;2023-04-28T13:52:39;15.60;50.30
48208;DHT22;33997;53.278;9.708;2023-04-28T13:55:04;15.40;50.40
48208;DHT22;33997;53.278;9.708;2023-04-28T13:57:30;15.30;51.00
48208;DHT22;33997;53.278;9.708;2023-04-28T13:59:56;15.40;51.30
48208;DHT22;33997;53.278;9.708;2023-04-28T14:02:21;15.30;50.50
48208;DHT22;33997;53.278;9.708;2023-04-28T14:04:47;15.30;50.90
48208;DHT22;33997;53.278;9.708;2023-04-28T14:07:15;15.00;51.70
48208;DHT22;33997;53.278;9.708;2023-04-28T14:09:40;15.00;51.20
48208;DHT22;33997;53.278;9.708;2023-04-28T14:12:06;14.90;51.50
48208;DHT22;33997;53.278;9.708;2023-04-28T14:14:31;14.90;51.60
48208;DHT22;33997;53.278;9.708;2023-04-28T14:16:57;14.80;51.70
48208;DHT22;33997;53.278;9.708;2023-04-28T14:19:23;14.80;52.50
48208;DHT22;33997;53.278;9.708;2023-04-28T14:21:51;14.80;52.30
48208;DHT22;33997;53.278;9.708;2023-04-28T14:24:17;14.70;52.40
48208;DHT22;33997;53.278;9.708;2023-04-28T14:26:43;14.60;52.90
48208;DHT22;33997;53.278;9.708;2023-04-28T14:29:08;14.60;52.80
48208;DHT22;33997;53.278;9.708;2023-04-28T14:31:34;14.60;52.70
48208;DHT22;33997;53.278;9.708;2023-04-28T14:33:59;14.60;52.20
48208;DHT22;33997;53.278;9.708;2023-04-28T14:36:25;14.80;52.70
48208;DHT22;33997;53.278;9.708;2023-04-28T14:38:51;14.80;51.40
48208;DHT22;33997;53.278;9.708;2023-04-28T14:41:17;15.10;51.50
48208;DHT22;33997;53.278;9.708;2023-04-28T14:43:42;15.30;51.50
48208;DHT22;33997;53.278;9.708;2023-04-28T14:46:10;15.40;50.40
48208;DHT22;33997;53.278;9.708;2023-04-28T14:48:35;15.80;51.40
48208;DHT22;33997;53.278;9.708;2023-04-28T14:51:01;15.90;50.10
48208;DHT22;33997;53.278;9.708;2023-04-28T14:53:26;16.10;48.90
48208;DHT22;33997;53.278;9.708;2023-04-28T14:55:52;15.50;48.80
48208;DHT22;33997;53.278;9.708;2023-04-28T14:58:17;15.50;49.10
48208;DHT22;33997;53.278;9.708;2023-04-28T15:00:43;16.00;49.20
48208;DHT22;33997;53.278;9.708;2023-04-28T15:03:09;16.00;49.80
48208;DHT22;33997;53.278;9.708;2023-04-28T15:05:34;15.90;50.20
48208;DHT22;33997;53.278;9.708;2023-04-28T15:07:59;15.90;50.40
48208;DHT22;33997;53.278;9.708;2023-04-28T15:10:34;15.60;49.80
48208;DHT22;33997;53.278;9.708;2023-04-28T15:13:01;15.40;51.80
48208;DHT22;33997;53.278;9.708;2023-04-28T15:15:26;15.20;51.80
48208;DHT22;33997;53.278;9.708;2023-04-28T15:17:52;15.00;51.30
48208;DHT22;33997;53.278;9.708;2023-04-28T15:20:25;14.90;52.10
48208;DHT22;33997;53.278;9.708;2023-04-28T15:22:51;14.60;52.70
48208;DHT22;33997;53.278;9.708;2023-04-28T15:25:16;14.60;52.00
48208;DHT22;33997;53.278;9.708;2023-04-28T15:27:42;14.60;52.70
48208;DHT22;33997;53.278;9.708;2023-04-28T15:30:08;14.40;52.40
48208;DHT22;33997;53.278;9.708;2023-04-28T15:32:33;14.50;53.00
48208;DHT22;33997;53.278;9.708;2023-04-28T15:34:59;14.40;52.80
48208;DHT22;33997;53.278;9.708;2023-04-28T15:37:41;14.50;54.40
48208;DHT22;33997;53.278;9.708;2023-04-28T15:40:11;14.30;53.50
48208;DHT22;33997;53.278;9.708;2023-04-28T15:42:37;14.40;55.00
48208;DHT22;33997;53.278;9.708;2023-04-28T15:45:04;14.30;53.90
48208;DHT22;33997;53.278;9.708;2023-04-28T15:47:30;14.20;55.10
48208;DHT22;33997;53.278;9.708;2023-04-28T15:49:57;14.10;55.40
48208;DHT22;33997;53.278;9.708;2023-04-28T15:52:23;14.10;55.50
48208;DHT22;33997;53.278;9.708;2023-04-28T15:54:49;14.00;58.50
48208;DHT22;33997;53.278;9.708;2023-04-28T15:57:14;13.80;61.80
48208;DHT22;33997;53.278;9.708;2023-04-28T15:59:40;13.50;62.80
48208;DHT22;33997;53.278;9.708;2023-04-28T16:02:06;13.40;65.60